Time;durP1;ratioP1;P1;durP2;ratioP2;P2;SDS_P1;SDS_P2;PMS_P1;PMS_P2;Temp;Humidity;BMP_temperature;BMP_pressure;BME280_temperature;BME280_humidity;BME280_pressure;Samples;Min_cycle;Max_cycle;Signal;HPM_P1;HPM_P2
2021/06/23 00:00:43;;;;;;;3.25;2.90;;;;;;;16.75;100.00;95886.41;4358125;33;20248;-76
2021/06/23 00:03:09;;;;;;;3.78;2.90;;;;;;;16.73;100.00;95884.87;4358943;32;20229;-76
2021/06/23 00:05:36;;;;;;;4.10;3.33;;;;;;;16.70;100.00;95892.00;4359226;32;20259;-76
2021/06/23 00:08:02;;;;;;;3.97;3.08;;;;;;;16.74;100.00;95894.41;4369933;32;20295;-77
2021/06/23 00:10:27;;;;;;;3.83;3.10;;;;;;;16.72;100.00;95885.81;4359031;32;20233;-77
2021/06/23 00:12:54;;;;;;;6.80;3.20;;;;;;;16.72;100.00;95898.88;4370118;32;20334;-76
2021/06/23 00:15:21;;;;;;;7.20;3.28;;;;;;;16.82;100.00;95897.19;4357549;33;20355;-76
2021/06/23 00:17:46;;;;;;;5.32;3.33;;;;;;;16.74;100.00;95899.63;4359021;33;20282;-76
2021/06/23 00:20:13;;;;;;;4.20;3.10;;;;;;;16.72;100.00;95901.50;4358653;33;20260;-77
2021/06/23 00:24:32;;;;;;;3.30;3.00;;;;;;;16.69;100.00;95889.53;5108673;27;20404;-76
2021/06/23 00:26:57;;;;;;;3.05;2.70;;;;;;;16.59;100.00;95889.47;5106905;28;20474;-76
2021/06/23 00:29:23;;;;;;;10.07;3.33;;;;;;;16.57;100.00;95883.53;5108601;28;20424;-76
2021/06/23 00:31:49;;;;;;;4.35;2.97;;;;;;;16.69;100.00;95886.94;5107223;28;20413;-76
2021/06/23 00:34:18;;;;;;;5.63;3.20;;;;;;;16.73;100.00;95885.69;5108416;28;20497;-76
2021/06/23 00:36:43;;;;;;;4.75;2.97;;;;;;;16.76;100.00;95893.31;5088058;22;20434;-76
2021/06/23 00:39:08;;;;;;;3.95;2.45;;;;;;;16.73;100.00;95893.56;5047805;28;20787;-76
2021/06/23 00:41:35;;;;;;;2.87;2.50;;;;;;;16.66;100.00;95888.00;5047719;28;20448;-76
2021/06/23 00:44:01;;;;;;;4.57;3.08;;;;;;;16.59;100.00;95892.09;5029876;28;20512;-77
2021/06/23 00:46:26;;;;;;;3.60;2.93;;;;;;;16.63;100.00;95890.06;5029528;28;20454;-77
2021/06/23 00:48:56;;;;;;;4.22;3.30;;;;;;;16.99;100.00;95891.34;5047664;28;20425;-77
2021/06/23 00:51:21;;;;;;;4.55;2.78;;;;;;;17.07;100.00;95888.06;5047611;28;20418;-77
2021/06/23 00:53:47;;;;;;;4.20;2.83;;;;;;;17.03;100.00;95889.28;5047543;28;20760;-77
2021/06/23 00:56:15;;;;;;;3.35;2.88;;;;;;;16.67;100.00;95881.81;5047319;28;20414;-77
2021/06/23 00:58:42;;;;;;;4.70;3.05;;;;;;;16.50;100.00;95884.19;5029843;28;20476;-76
2021/06/23 01:01:08;;;;;;;5.35;2.90;;;;;;;16.41;100.00;95891.03;5029544;28;20446;-76
2021/06/23 01:03:34;;;;;;;4.70;3.10;;;;;;;16.29;100.00;95890.28;5029499;28;20418;-76
2021/06/23 01:06:00;;;;;;;4.85;2.92;;;;;;;16.35;100.00;95888.94;5029114;28;20418;-77
2021/06/23 01:08:26;;;;;;;8.00;2.83;;;;;;;16.38;100.00;95893.91;5029473;28;20445;-77
2021/06/23 01:10:52;;;;;;;3.27;2.87;;;;;;;16.53;100.00;95892.59;5029465;28;20935;-77
2021/06/23 01:13:32;;;;;;;6.30;2.73;;;;;;;16.68;100.00;95893.91;5029284;28;20461;-76
2021/06/23 01:16:00;;;;;;;5.38;2.70;;;;;;;16.59;100.00;95899.94;5046837;28;20851;-77
2021/06/23 01:18:26;;;;;;;3.70;2.75;;;;;;;16.56;100.00;95897.59;5047189;28;20484;-77
2021/06/23 01:20:52;;;;;;;12.23;3.07;;;;;;;16.48;100.00;95900.03;5029124;28;20418;-78
2021/06/23 01:23:19;;;;;;;4.65;2.72;;;;;;;16.50;100.00;95899.88;5046892;28;20484;-76
2021/06/23 01:25:49;;;;;;;3.75;3.45;;;;;;;16.47;100.00;95892.31;5046329;28;20426;-76
2021/06/23 01:28:14;;;;;;;4.88;3.20;;;;;;;16.52;100.00;95895.38;5021394;28;20450;-77
2021/06/23 01:30:39;;;;;;;6.68;3.35;;;;;;;16.55;100.00;95890.72;5046782;28;20453;-76
2021/06/23 01:33:06;;;;;;;5.57;3.27;;;;;;;16.73;100.00;95883.09;5046875;28;20457;-77
2021/06/23 01:35:32;;;;;;;7.10;3.42;;;;;;;16.75;100.00;95885.59;5028504;28;20407;-77
2021/06/23 01:38:01;;;;;;;4.72;3.63;;;;;;;16.59;100.00;95886.03;5018604;28;20488;-77
2021/06/23 01:40:28;;;;;;;6.25;3.53;;;;;;;16.53;100.00;95882.16;5038697;28;20446;-77
2021/06/23 01:42:54;;;;;;;5.15;3.60;;;;;;;16.56;100.00;95878.47;5018080;28;20419;-77
2021/06/23 01:45:20;;;;;;;7.25;4.18;;;;;;;16.53;100.00;95874.31;5015996;28;20502;-78
2021/06/23 01:47:45;;;;;;;4.43;3.63;;;;;;;16.54;100.00;95880.34;5033917;28;20780;-77
2021/06/23 01:50:12;;;;;;;4.40;3.90;;;;;;;16.59;100.00;95875.59;5033198;28;20407;-77
2021/06/23 01:52:38;;;;;;;5.07;3.17;;;;;;;16.62;100.00;95878.78;5015478;28;20419;-77
2021/06/23 01:55:05;;;;;;;3.95;3.58;;;;;;;16.59;100.00;95871.19;5033350;28;20741;-77
2021/06/23 01:57:38;;;;;;;5.15;3.70;;;;;;;16.39;100.00;95875.50;5033165;28;20762;-77
2021/06/23 02:00:05;;;;;;;5.15;3.33;;;;;;;15.94;100.00;95861.84;5033177;28;20986;-77
2021/06/23 02:02:36;;;;;;;3.63;3.00;;;;;;;15.81;100.00;95856.00;5032837;28;20442;-77
2021/06/23 02:05:04;;;;;;;3.23;2.93;;;;;;;15.68;100.00;95862.25;5033046;28;20439;-77
2021/06/23 02:07:54;;;;;;;3.78;2.95;;;;;;;15.76;100.00;95868.59;5014972;28;20415;-77
2021/06/23 02:10:39;;;;;;;4.28;2.97;;;;;;;15.89;100.00;95853.56;5015220;28;20569;-77
2021/06/23 02:13:52;;;;;;;3.92;2.72;;;;;;;16.02;100.00;95856.84;5015023;28;20932;-77
2021/06/23 02:16:23;;;;;;;3.28;2.70;;;;;;;16.13;100.00;95861.16;5014924;28;20784;-76
2021/06/23 02:18:49;;;;;;;3.20;2.78;;;;;;;16.19;100.00;95853.63;5032719;28;20413;-77
2021/06/23 02:21:15;;;;;;;3.17;2.70;;;;;;;16.33;100.00;95856.88;5015045;28;20427;-77
2021/06/23 02:23:43;;;;;;;3.13;2.80;;;;;;;16.64;100.00;95848.06;5014779;28;20477;-77
2021/06/23 02:26:09;;;;;;;4.38;3.47;;;;;;;16.83;100.00;95849.97;5032307;28;20900;-77
2021/06/23 02:28:36;;;;;;;6.45;3.00;;;;;;;16.74;100.00;95844.72;5018083;28;20490;-76
2021/06/23 02:31:03;;;;;;;5.15;3.40;;;;;;;16.53;100.00;95845.53;5014735;28;20473;-77
2021/06/23 02:33:29;;;;;;;3.53;3.23;;;;;;;16.44;100.00;95852.41;5032464;28;20427;-77
2021/06/23 02:35:56;;;;;;;5.13;3.25;;;;;;;16.39;100.00;95848.53;5014143;28;20481;-77
2021/06/23 02:38:22;;;;;;;8.00;2.88;;;;;;;16.40;100.00;95837.94;5032445;28;20415;-77
2021/06/23 02:40:48;;;;;;;2.93;2.63;;;;;;;16.41;100.00;95854.44;5032376;28;20419;-78
2021/06/23 02:43:14;;;;;;;2.93;2.50;;;;;;;16.42;100.00;95859.53;5032149;28;20493;-77
2021/06/23 02:45:40;;;;;;;4.50;2.72;;;;;;;16.45;100.00;95848.00;5013343;28;20466;-76
2021/06/23 02:48:07;;;;;;;4.15;2.80;;;;;;;16.41;100.00;95847.41;5031814;28;20510;-77
2021/06/23 02:50:39;;;;;;;7.00;3.05;;;;;;;16.41;100.00;95852.66;5014319;28;20931;-76
2021/06/23 02:53:05;;;;;;;3.83;2.78;;;;;;;16.36;100.00;95861.84;5032304;28;20410;-76
2021/06/23 02:55:31;;;;;;;5.38;2.95;;;;;;;16.37;100.00;95864.31;5031656;28;20510;-77
2021/06/23 02:57:58;;;;;;;5.00;2.80;;;;;;;16.38;100.00;95871.19;5032042;28;20407;-77
2021/06/23 03:00:24;;;;;;;4.22;2.75;;;;;;;16.31;100.00;95871.84;5032319;28;20423;-76
2021/06/23 03:02:51;;;;;;;4.27;2.90;;;;;;;16.27;100.00;95873.88;5031856;28;20606;-77
2021/06/23 03:05:16;;;;;;;5.43;2.90;;;;;;;16.28;100.00;95879.94;5013638;28;20419;-77
2021/06/23 03:07:42;;;;;;;5.30;3.00;;;;;;;16.33;100.00;95881.22;5014275;28;20429;-77
2021/06/23 03:10:09;;;;;;;3.43;2.87;;;;;;;16.39;100.00;95880.72;5014081;28;20913;-77
2021/06/23 03:12:35;;;;;;;3.40;2.80;;;;;;;16.29;100.00;95887.66;5013869;28;20577;-77
2021/06/23 03:15:00;;;;;;;5.53;3.47;;;;;;;16.14;100.00;95881.94;5031646;28;20926;-76
2021/06/23 03:17:26;;;;;;;3.97;3.20;;;;;;;16.04;100.00;95882.81;5013852;28;21127;-77
2021/06/23 03:19:53;;;;;;;8.25;3.75;;;;;;;15.99;100.00;95893.66;5014058;28;20920;-78
2021/06/23 03:22:18;;;;;;;3.83;3.30;;;;;;;16.05;100.00;95885.31;5012537;28;20458;-77
2021/06/23 03:24:44;;;;;;;4.30;3.47;;;;;;;16.02;100.00;95887.34;5029471;28;20430;-77
2021/06/23 03:27:09;;;;;;;3.70;3.20;;;;;;;15.90;100.00;95890.00;5031017;28;20415;-77
2021/06/23 03:29:35;;;;;;;8.07;3.53;;;;;;;15.73;100.00;95895.81;5013779;28;20523;-76
2021/06/23 03:32:04;;;;;;;10.90;3.47;;;;;;;15.75;100.00;95896.47;5013536;28;20920;-77
2021/06/23 03:34:29;;;;;;;5.18;3.60;;;;;;;15.72;100.00;95900.19;5029316;28;20438;-77
2021/06/23 03:36:56;;;;;;;3.58;3.28;;;;;;;15.75;100.00;95901.72;5028997;28;20435;-76
2021/06/23 03:39:22;;;;;;;3.72;3.15;;;;;;;15.90;100.00;95889.19;5031193;28;20490;-77
2021/06/23 03:41:47;;;;;;;4.03;2.83;;;;;;;16.01;100.00;95899.56;5013574;28;20510;-76
2021/06/23 03:44:13;;;;;;;3.37;2.57;;;;;;;16.14;100.00;95902.84;5013468;28;20552;-76
2021/06/23 03:46:38;;;;;;;4.47;3.60;;;;;;;15.86;100.00;95898.22;5031058;28;20445;-76
2021/06/23 03:49:04;;;;;;;8.80;3.25;;;;;;;15.76;100.00;95900.78;5031108;28;20403;-77
2021/06/23 03:51:29;;;;;;;5.20;3.47;;;;;;;15.64;100.00;95904.34;5031181;28;20429;-76
2021/06/23 03:53:56;;;;;;;4.03;3.15;;;;;;;15.63;100.00;95913.13;5013248;28;20773;-76
2021/06/23 03:56:21;;;;;;;6.65;3.25;;;;;;;15.59;100.00;95915.16;5013232;28;20414;-76
2021/06/23 03:58:47;;;;;;;4.90;3.40;;;;;;;15.78;100.00;95914.53;5029596;28;20454;-77
2021/06/23 04:01:12;;;;;;;5.20;3.37;;;;;;;15.90;100.00;95915.31;5030943;28;20415;-76
2021/06/23 04:03:38;;;;;;;4.40;3.40;;;;;;;16.05;100.00;95911.44;5013296;28;20415;-77
2021/06/23 04:06:04;;;;;;;4.18;3.30;;;;;;;16.18;100.00;95911.25;5030709;28;20506;-77
2021/06/23 04:08:29;;;;;;;3.75;3.42;;;;;;;16.25;100.00;95914.19;5030830;28;20469;-76
2021/06/23 04:10:56;;;;;;;5.50;3.43;;;;;;;16.48;100.00;95917.50;5015417;28;20468;-77
2021/06/23 04:13:22;;;;;;;5.18;3.13;;;;;;;16.90;100.00;95923.50;5011248;28;20419;-78
2021/06/23 04:15:47;;;;;;;4.03;2.78;;;;;;;16.72;100.00;95927.66;4993380;28;20433;-77
2021/06/23 04:18:12;;;;;;;6.30;3.20;;;;;;;16.92;100.00;95919.00;4993274;28;20511;-76
2021/06/23 04:20:38;;;;;;;4.47;3.20;;;;;;;16.81;100.00;95926.94;4993420;28;20937;-77
2021/06/23 04:23:03;;;;;;;5.03;3.30;;;;;;;16.69;100.00;95921.75;4993333;28;20464;-77
2021/06/23 04:25:29;;;;;;;4.10;3.10;;;;;;;16.60;100.00;95927.75;4993361;28;20417;-77
2021/06/23 04:27:56;;;;;;;4.78;3.10;;;;;;;16.53;100.00;95923.97;5010849;28;20428;-77
2021/06/23 04:30:22;;;;;;;3.97;3.30;;;;;;;16.53;100.00;95925.78;4993364;28;20417;-77
2021/06/23 04:32:48;;;;;;;4.28;3.55;;;;;;;16.52;100.00;95935.41;5010842;28;20439;-76
2021/06/23 04:35:14;;;;;;;4.13;3.40;;;;;;;16.46;100.00;95938.53;5010624;28;20436;-77
2021/06/23 04:37:41;;;;;;;3.20;2.90;;;;;;;16.48;100.00;95936.63;5012714;28;20467;-78
2021/06/23 04:40:09;;;;;;;4.80;2.80;;;;;;;16.52;100.00;95930.19;5015819;28;20420;-77
2021/06/23 04:42:35;;;;;;;5.93;3.00;;;;;;;16.56;100.00;95935.97;4999452;28;20988;-78
2021/06/23 04:45:04;;;;;;;4.57;2.88;;;;;;;16.61;100.00;95932.03;5013060;28;20426;-78
2021/06/23 04:47:30;;;;;;;3.70;3.20;;;;;;;16.52;100.00;95930.19;5012348;28;20419;-77
2021/06/23 04:49:55;;;;;;;7.77;3.40;;;;;;;16.58;100.00;95932.28;5029842;28;20924;-77
2021/06/23 04:52:21;;;;;;;4.47;3.10;;;;;;;16.60;100.00;95937.38;5020956;28;20455;-77
2021/06/23 04:54:46;;;;;;;6.25;3.60;;;;;;;16.41;100.00;95930.25;5024871;28;20473;-76
2021/06/23 04:57:11;;;;;;;6.10;4.13;;;;;;;16.44;100.00;95930.81;5012944;28;20413;-78
2021/06/23 04:59:37;;;;;;;4.50;3.63;;;;;;;16.53;100.00;95926.59;5024747;28;20414;-77
2021/06/23 05:02:04;;;;;;;7.63;4.10;;;;;;;16.70;100.00;95931.25;5012925;28;20485;-76
2021/06/23 05:04:29;;;;;;;4.50;3.83;;;;;;;16.89;100.00;95934.94;5012698;28;20575;-78
2021/06/23 05:06:55;;;;;;;5.10;3.90;;;;;;;16.98;100.00;95942.00;5030727;28;20490;-77
2021/06/23 05:09:20;;;;;;;4.40;3.50;;;;;;;17.13;100.00;95947.69;5001990;28;20420;-76
2021/06/23 05:11:45;;;;;;;4.60;3.73;;;;;;;17.29;100.00;95947.22;4996823;28;20467;-77
2021/06/23 05:14:11;;;;;;;7.40;3.85;;;;;;;17.31;100.00;95943.50;5027667;28;20415;-76
2021/06/23 05:16:38;;;;;;;4.63;3.42;;;;;;;17.41;100.00;95952.19;5034005;28;20410;-77
2021/06/23 05:19:05;;;;;;;3.75;3.28;;;;;;;17.46;100.00;95950.97;5016254;28;20437;-77
2021/06/23 05:21:32;;;;;;;4.50;3.45;;;;;;;17.54;100.00;95953.75;5016210;28;20774;-76
2021/06/23 05:23:58;;;;;;;3.97;3.60;;;;;;;17.53;100.00;95955.53;5013244;28;20426;-77
2021/06/23 05:26:24;;;;;;;5.22;3.00;;;;;;;17.47;100.00;95960.50;5022381;28;20417;-76
2021/06/23 05:28:49;;;;;;;4.65;2.92;;;;;;;17.43;100.00;95957.31;5014175;28;20810;-76
2021/06/23 05:31:15;;;;;;;3.23;2.70;;;;;;;17.44;100.00;95961.59;4996394;28;20906;-76
2021/06/23 05:33:40;;;;;;;4.67;3.23;;;;;;;17.39;100.00;95963.75;5013947;28;20408;-77
2021/06/23 05:36:07;;;;;;;5.00;3.20;;;;;;;17.41;100.00;95969.72;4995979;28;20417;-76
2021/06/23 05:38:32;;;;;;;4.65;3.30;;;;;;;17.62;100.00;95975.69;4996303;28;20417;-75
2021/06/23 05:40:58;;;;;;;7.37;3.40;;;;;;;17.79;100.00;95965.53;5027971;28;20994;-74
2021/06/23 05:43:23;;;;;;;4.80;3.07;;;;;;;17.98;100.00;95976.03;5049992;28;20417;-75
2021/06/23 05:45:48;;;;;;;3.38;3.08;;;;;;;18.17;100.00;95971.78;5053289;28;20429;-75
2021/06/23 05:48:14;;;;;;;4.53;3.00;;;;;;;18.04;100.00;95969.44;5035578;28;21158;-75
2021/06/23 05:50:41;;;;;;;4.43;2.47;;;;;;;18.27;99.91;95972.59;5053284;28;20412;-76
2021/06/23 05:53:08;;;;;;;5.53;2.10;;;;;;;18.50;97.72;95970.50;5053346;28;20420;-75
2021/06/23 05:55:33;;;;;;;5.47;2.63;;;;;;;18.41;95.76;95973.97;5034793;28;20421;-74
2021/06/23 05:57:59;;;;;;;4.90;2.93;;;;;;;18.29;97.42;95965.44;5053224;28;20439;-75
2021/06/23 06:00:24;;;;;;;6.13;3.33;;;;;;;18.00;100.00;95976.75;5053224;28;20512;-75
2021/06/23 06:02:50;;;;;;;5.45;2.83;;;;;;;18.29;100.00;95968.88;5020140;28;20800;-75
2021/06/23 06:05:16;;;;;;;6.22;4.20;;;;;;;18.27;97.75;95978.66;5033031;28;20427;-75
2021/06/23 06:07:42;;;;;;;6.07;3.80;;;;;;;18.23;98.21;95981.72;5033180;28;20801;-75
2021/06/23 06:10:10;;;;;;;4.65;3.45;;;;;;;18.58;97.33;95979.34;5032704;28;20816;-75
2021/06/23 06:12:36;;;;;;;4.43;3.08;;;;;;;18.75;96.84;95979.63;5032899;28;20907;-75
2021/06/23 06:15:02;;;;;;;8.15;3.65;;;;;;;18.82;95.38;95981.53;5032950;28;20481;-75
2021/06/23 06:17:28;;;;;;;6.60;3.80;;;;;;;19.08;92.86;95976.47;5014899;28;20510;-75
2021/06/23 06:19:54;;;;;;;7.28;4.03;;;;;;;19.23;92.27;95983.91;5032789;28;20422;-76
2021/06/23 06:22:19;;;;;;;4.70;3.80;;;;;;;19.03;91.57;95993.66;5032734;28;20414;-75
2021/06/23 06:24:44;;;;;;;5.23;3.70;;;;;;;18.62;93.57;95985.16;5032585;28;20427;-77
2021/06/23 06:27:11;;;;;;;5.05;4.05;;;;;;;18.70;95.70;95981.81;5014696;28;20836;-76
2021/06/23 06:29:37;;;;;;;4.47;3.87;;;;;;;19.46;91.15;95987.78;5032738;28;20792;-76
2021/06/23 06:32:03;;;;;;;8.73;4.50;;;;;;;19.65;89.78;95986.06;5015072;28;20423;-77
2021/06/23 06:34:28;;;;;;;4.33;3.30;;;;;;;19.92;88.88;95988.69;5015138;28;20746;-76
2021/06/23 06:36:53;;;;;;;11.60;4.43;;;;;;;20.48;85.07;95987.56;5015419;28;20441;-78
2021/06/23 06:39:19;;;;;;;5.22;3.80;;;;;;;20.71;86.06;95987.09;5016990;28;20518;-78
2021/06/23 06:41:44;;;;;;;5.00;3.50;;;;;;;20.66;84.04;95986.75;5035269;28;20465;-76
2021/06/23 06:44:11;;;;;;;5.97;3.70;;;;;;;20.84;85.85;95987.53;5035342;28;20517;-78
2021/06/23 06:46:37;;;;;;;6.95;3.53;;;;;;;20.93;82.92;95991.84;5017350;28;20770;-78
2021/06/23 06:49:02;;;;;;;3.95;3.20;;;;;;;21.23;79.18;95995.00;5017714;28;20430;-79
2021/06/23 06:51:28;;;;;;;6.93;3.15;;;;;;;21.26;75.69;95994.69;5036393;28;20425;-79
2021/06/23 06:53:53;;;;;;;5.57;3.30;;;;;;;21.34;77.67;96004.47;5034950;28;20772;-79
2021/06/23 06:56:19;;;;;;;5.33;3.00;;;;;;;21.54;78.88;96002.41;5034712;28;20419;-76
2021/06/23 06:58:44;;;;;;;4.18;3.03;;;;;;;21.62;79.30;95999.84;5008559;28;20428;-79
2021/06/23 07:01:11;;;;;;;4.40;2.50;;;;;;;21.86;75.96;95999.91;4995723;28;20472;-76
2021/06/23 07:03:36;;;;;;;3.83;2.22;;;;;;;21.76;71.04;96004.47;4994998;28;20428;-76
2021/06/23 07:06:02;;;;;;;5.28;2.33;;;;;;;21.77;70.15;96003.50;4994484;28;20420;-76
2021/06/23 07:08:27;;;;;;;4.83;2.10;;;;;;;21.64;67.77;96003.94;5012146;28;20440;-75
2021/06/23 07:10:53;;;;;;;2.87;2.47;;;;;;;22.05;71.05;96000.59;5019263;28;20930;-76
2021/06/23 07:13:18;;;;;;;4.17;2.57;;;;;;;22.23;68.25;96006.59;5001121;28;20429;-77
2021/06/23 07:15:43;;;;;;;3.00;2.00;;;;;;;22.20;67.60;96009.56;5022713;28;20427;-74
2021/06/23 07:18:10;;;;;;;2.53;1.90;;;;;;;22.53;71.46;96005.16;5009977;28;20431;-77
2021/06/23 07:20:36;;;;;;;6.10;2.00;;;;;;;22.66;65.23;96012.59;5011087;28;20427;-75
2021/06/23 07:23:01;;;;;;;2.67;2.10;;;;;;;22.71;70.27;96023.47;5012239;28;20439;-74
2021/06/23 07:25:27;;;;;;;3.50;1.80;;;;;;;22.42;66.08;96023.94;5031254;28;20415;-76
2021/06/23 07:27:52;;;;;;;1.90;1.50;;;;;;;22.61;66.92;96020.97;5031510;28;20518;-75
2021/06/23 07:30:19;;;;;;;3.08;1.85;;;;;;;22.64;63.57;96027.75;5013880;28;20415;-76
2021/06/23 07:38:03;;;;;;;2.63;1.63;;;;;;;22.23;62.12;96022.44;5016987;28;20516;-78
2021/06/23 07:40:43;;;;;;;4.43;1.65;;;;;;;22.79;66.05;96014.72;5026185;28;20423;-74
2021/06/23 07:43:09;;;;;;;3.78;1.70;;;;;;;22.99;60.91;96017.84;5019559;28;20419;-75
2021/06/23 07:45:36;;;;;;;2.50;1.75;;;;;;;22.88;65.45;96019.03;5033882;28;20445;-75
2021/06/23 07:48:01;;;;;;;3.83;1.70;;;;;;;23.23;60.02;96020.47;5032131;28;20411;-75
2021/06/23 07:50:36;;;;;;;4.45;1.83;;;;;;;23.33;62.27;96013.19;5031174;28;20917;-75
2021/06/23 07:53:19;;;;;;;2.50;1.50;;;;;;;23.43;62.19;96012.97;5031058;28;20421;-75
2021/06/23 07:55:51;;;;;;;2.80;1.45;;;;;;;23.46;63.90;96014.47;5030916;28;20425;-76
2021/06/23 08:09:34;;;;;;;1.83;1.17;;;;;;;23.53;53.41;96020.72;5019918;28;20428;-76
2021/06/23 08:12:15;;;;;;;1.75;1.10;;;;;;;23.65;53.31;96022.81;5013190;28;20462;-75
2021/06/23 08:14:40;;;;;;;1.40;1.25;;;;;;;24.39;58.26;96020.66;5029088;28;20774;-76
2021/06/23 08:17:07;;;;;;;9.97;1.37;;;;;;;24.48;56.72;96020.63;5022513;28;20415;-77
2021/06/23 08:19:32;;;;;;;3.40;1.48;;;;;;;23.74;56.13;96014.91;5030944;28;20465;-75
2021/06/23 08:21:59;;;;;;;2.27;1.50;;;;;;;23.48;59.53;96009.84;5014061;28;20420;-77
2021/06/23 08:24:24;;;;;;;2.55;1.40;;;;;;;23.77;60.35;96011.88;5011000;28;20429;-75
2021/06/23 08:26:50;;;;;;;2.20;1.30;;;;;;;23.33;55.76;96002.59;5011105;28;20419;-75
2021/06/23 08:29:15;;;;;;;1.63;1.43;;;;;;;22.59;57.55;96006.31;5018242;28;20551;-76
2021/06/23 08:31:41;;;;;;;4.30;1.30;;;;;;;22.32;58.76;96008.28;5001453;28;20471;-75
2021/06/23 08:34:06;;;;;;;4.65;1.50;;;;;;;23.06;65.46;96005.63;5011100;28;20408;-74
2021/06/23 08:36:32;;;;;;;2.77;1.40;;;;;;;23.81;62.80;96005.28;5028253;28;20471;-75
2021/06/23 08:38:58;;;;;;;1.50;1.17;;;;;;;24.32;59.81;96001.16;5030648;28;20493;-75
2021/06/23 08:41:26;;;;;;;3.10;1.40;;;;;;;24.52;53.85;96000.72;5030161;28;20418;-75
2021/06/23 08:43:51;;;;;;;4.85;1.15;;;;;;;24.84;53.64;96005.78;5032003;28;20427;-75
2021/06/23 08:46:17;;;;;;;1.25;0.98;;;;;;;25.20;50.65;95996.34;5034465;28;20485;-76
2021/06/23 08:48:42;;;;;;;1.77;1.00;;;;;;;25.08;49.68;95995.94;5016238;28;20479;-75
2021/06/23 08:51:09;;;;;;;1.10;1.00;;;;;;;25.13;48.38;95996.22;5014551;28;20443;-76
2021/06/23 08:53:34;;;;;;;1.52;1.02;;;;;;;25.02;50.19;95997.47;5014841;28;20895;-75
2021/06/23 08:56:02;;;;;;;1.37;0.80;;;;;;;25.31;51.74;96002.00;5028857;28;20488;-75
2021/06/23 08:58:28;;;;;;;4.53;1.10;;;;;;;25.17;52.11;95991.41;5054266;28;20423;-76
2021/06/23 09:00:53;;;;;;;1.30;1.10;;;;;;;24.92;53.40;95993.41;5054294;28;20537;-75
2021/06/23 09:03:19;;;;;;;2.25;1.05;;;;;;;24.63;54.27;96000.31;5054531;28;20827;-75
2021/06/23 09:05:49;;;;;;;2.43;1.10;;;;;;;24.90;52.45;95998.09;5053900;28;20414;-75
2021/06/23 09:08:28;;;;;;;1.35;0.90;;;;;;;24.73;53.79;95989.47;5036762;28;20417;-75
2021/06/23 09:10:54;;;;;;;1.70;1.10;;;;;;;24.71;52.27;95981.69;5041858;28;20441;-77
2021/06/23 09:13:21;;;;;;;1.37;1.13;;;;;;;24.65;52.94;95984.22;5031548;28;20419;-77
2021/06/23 09:15:53;;;;;;;3.22;1.50;;;;;;;24.88;50.48;95974.41;5025679;28;20448;-76
2021/06/23 09:18:20;;;;;;;2.30;1.42;;;;;;;24.79;47.96;95976.31;5027329;28;20422;-77
2021/06/23 09:20:47;;;;;;;2.20;1.50;;;;;;;25.22;48.21;95973.13;5034198;28;20501;-77
2021/06/23 09:23:13;;;;;;;3.00;1.33;;;;;;;25.20;51.78;95973.31;5014630;28;20427;-76
2021/06/23 09:25:44;;;;;;;2.67;1.60;;;;;;;25.21;55.82;95976.78;4996355;28;20507;-77
2021/06/23 09:28:14;;;;;;;2.08;1.45;;;;;;;25.24;52.85;95977.22;4996752;28;20511;-77
2021/06/23 09:30:42;;;;;;;1.30;1.10;;;;;;;24.96;52.39;95969.06;5014125;28;20895;-76
2021/06/23 09:33:19;;;;;;;2.67;1.25;;;;;;;25.16;52.91;95976.50;4997289;28;20519;-76
2021/06/23 09:35:47;;;;;;;2.00;1.30;;;;;;;25.20;51.17;95981.25;5029947;28;20423;-77
2021/06/23 09:38:48;;;;;;;3.25;1.23;;;;;;;24.66;48.21;95981.44;5033035;28;20537;-76
2021/06/23 09:41:23;;;;;;;1.90;1.20;;;;;;;24.87;53.93;95981.53;5024447;28;20441;-75
2021/06/23 09:43:50;;;;;;;3.45;1.40;;;;;;;24.42;55.55;95977.13;5033745;28;20951;-76
2021/06/23 09:46:19;;;;;;;3.30;1.20;;;;;;;24.14;56.28;95980.28;5015969;28;20430;-75
2021/06/23 09:48:45;;;;;;;1.70;1.42;;;;;;;23.93;57.90;95979.25;5034442;28;20427;-77
2021/06/23 09:51:13;;;;;;;4.50;1.30;;;;;;;23.16;55.79;95982.50;5033771;28;20433;-77
2021/06/23 09:53:39;;;;;;;3.00;1.17;;;;;;;23.08;57.82;95971.97;5036089;28;20430;-78
2021/06/23 09:56:24;;;;;;;1.80;1.20;;;;;;;22.79;56.54;95977.75;5038342;28;20408;-78
2021/06/23 09:58:52;;;;;;;2.03;1.50;;;;;;;23.43;67.18;95968.88;5020412;28;20427;-78
2021/06/23 10:01:18;;;;;;;3.83;2.07;;;;;;;24.17;64.12;95984.38;5019815;28;20474;-78
2021/06/23 10:03:53;;;;;;;4.70;2.05;;;;;;;24.31;61.54;95985.47;5019461;28;20429;-77
2021/06/23 10:06:19;;;;;;;5.60;2.10;;;;;;;24.58;62.97;95978.81;5019343;28;20824;-78
2021/06/23 10:08:45;;;;;;;4.00;2.40;;;;;;;24.86;61.78;95981.72;5020139;28;20423;-78
2021/06/23 10:11:10;;;;;;;4.73;2.40;;;;;;;25.07;60.66;95971.25;5034482;28;20418;-78
2021/06/23 10:13:36;;;;;;;2.13;1.92;;;;;;;24.99;56.56;95975.81;5041746;28;20908;-78
2021/06/23 10:16:01;;;;;;;3.70;2.30;;;;;;;24.56;56.83;95975.53;5057955;28;20416;-78
2021/06/23 10:18:28;;;;;;;4.00;2.63;;;;;;;24.49;60.09;95971.97;5035468;28;20560;-77
2021/06/23 10:20:54;;;;;;;3.67;2.35;;;;;;;24.09;60.41;95979.16;5032529;28;20433;-79
2021/06/23 10:23:20;;;;;;;4.37;2.00;;;;;;;24.03;58.47;95964.81;5037442;28;20451;-76
2021/06/23 10:25:45;;;;;;;3.92;2.30;;;;;;;24.48;61.61;95962.38;5032639;28;20415;-76
2021/06/23 10:28:11;;;;;;;3.10;2.80;;;;;;;24.37;56.63;95956.47;5012972;28;20833;-76
2021/06/23 10:30:37;;;;;;;4.10;2.03;;;;;;;24.69;58.80;95956.38;4996797;28;20424;-76
2021/06/23 10:33:03;;;;;;;3.83;2.10;;;;;;;23.62;59.99;95957.06;4995216;28;20964;-76
2021/06/23 10:35:29;;;;;;;4.53;2.40;;;;;;;24.58;58.09;95963.78;5013416;28;20484;-76
2021/06/23 10:37:55;;;;;;;2.67;1.50;;;;;;;24.43;57.51;95960.25;5024154;28;20411;-75
2021/06/23 10:40:21;;;;;;;1.50;1.23;;;;;;;24.49;58.24;95956.06;5013228;28;20439;-76
2021/06/23 10:42:47;;;;;;;3.30;1.20;;;;;;;24.83;54.41;95945.81;5020651;28;20424;-75
2021/06/23 10:45:14;;;;;;;2.17;1.50;;;;;;;24.93;54.21;95948.22;5015433;28;20424;-76
2021/06/23 10:47:42;;;;;;;3.83;1.98;;;;;;;25.28;57.84;95954.66;5013213;28;20433;-75
2021/06/23 10:50:09;;;;;;;3.17;2.10;;;;;;;25.44;56.99;95961.63;4995327;28;20795;-76
2021/06/23 10:52:38;;;;;;;5.18;1.92;;;;;;;25.61;56.99;95964.06;5012587;28;20429;-77
2021/06/23 10:55:07;;;;;;;2.65;1.95;;;;;;;25.12;54.81;95960.13;5012509;28;20914;-76
2021/06/23 10:57:39;;;;;;;7.70;2.08;;;;;;;24.78;58.44;95953.50;4994820;28;20432;-76
2021/06/23 11:00:29;;;;;;;5.37;2.40;;;;;;;24.83;59.51;95953.75;5012146;28;20409;-76
2021/06/23 11:03:01;;;;;;;7.33;2.07;;;;;;;24.47;56.32;95960.72;4995091;28;21019;-76
2021/06/23 11:05:34;;;;;;;3.38;2.28;;;;;;;24.18;59.98;95964.03;5015305;28;20459;-77
2021/06/23 11:08:01;;;;;;;2.72;1.75;;;;;;;24.00;60.28;95972.28;5013036;28;20442;-76
2021/06/23 11:10:31;;;;;;;4.03;2.85;;;;;;;23.74;61.61;95969.94;5005602;28;20421;-75
2021/06/23 11:12:59;;;;;;;5.57;2.80;;;;;;;23.54;62.80;95967.66;5000828;28;21091;-76
2021/06/23 11:15:34;;;;;;;3.47;2.58;;;;;;;23.41;63.73;95960.28;5013544;28;20407;-76
2021/06/23 11:18:31;;;;;;;6.97;2.90;;;;;;;23.39;63.46;95954.34;5031539;28;20823;-76
2021/06/23 11:20:59;;;;;;;6.55;3.10;;;;;;;22.79;65.10;95964.53;5028504;28;20793;-76
2021/06/23 11:23:49;;;;;;;3.58;2.50;;;;;;;23.14;66.83;95966.81;5013713;28;20827;-76
2021/06/23 11:26:53;;;;;;;4.60;2.25;;;;;;;23.69;63.03;95962.50;5031039;28;20999;-76
2021/06/23 11:29:36;;;;;;;2.63;1.88;;;;;;;23.85;60.84;95965.09;5013584;28;20427;-75
2021/06/23 11:32:07;;;;;;;2.97;2.05;;;;;;;23.98;61.99;95966.31;5031352;28;20465;-76
2021/06/23 11:34:53;;;;;;;3.67;2.00;;;;;;;24.23;58.84;95965.16;5031426;28;20419;-75
2021/06/23 11:37:21;;;;;;;4.70;1.83;;;;;;;24.23;58.90;95957.22;5013016;28;20430;-76
2021/06/23 11:39:48;;;;;;;2.78;1.58;;;;;;;24.56;60.04;95965.78;5010867;28;20423;-76
2021/06/23 11:42:14;;;;;;;4.43;1.92;;;;;;;24.58;57.80;95978.81;5011735;28;20416;-77
2021/06/23 11:44:41;;;;;;;3.92;2.70;;;;;;;23.85;61.81;95977.47;4993821;28;21001;-77
2021/06/23 11:47:07;;;;;;;3.50;1.45;;;;;;;21.83;60.27;95997.56;5011175;28;20817;-76
2021/06/23 11:49:33;;;;;;;2.58;1.35;;;;;;;20.63;61.00;95992.31;4993796;28;20456;-76